createdAt,value
2018-04-11T00:03:18.297Z,93.90
2018-04-11T00:08:13.417Z,94.10
2018-04-11T00:13:08.570Z,94.40
2018-04-11T00:18:02.983Z,94.40
2018-04-11T00:22:57.369Z,94.80
2018-04-11T00:27:51.740Z,95.00
2018-04-11T00:32:46.860Z,95.50
2018-04-11T00:37:42.003Z,94.80
2018-04-11T00:42:36.406Z,94.80
2018-04-11T00:47:30.932Z,95.10
2018-04-11T00:52:25.306Z,96.10
2018-04-11T00:57:19.677Z,95.90
2018-04-11T01:02:14.032Z,96.00
2018-04-11T01:07:08.403Z,95.80
2018-04-11T01:12:02.761Z,95.00
2018-04-11T01:16:57.140Z,95.10
2018-04-11T01:21:51.509Z,94.60
2018-04-11T01:26:46.659Z,94.70
2018-04-11T01:31:41.005Z,94.40
2018-04-11T01:36:35.381Z,94.10
2018-04-11T01:41:29.483Z,94.30
2018-04-11T01:46:23.871Z,94.10
2018-04-11T01:51:18.299Z,93.60
2018-04-11T01:56:12.680Z,93.30
2018-04-11T02:01:07.030Z,93.20
2018-04-11T02:06:02.423Z,92.90
2018-04-11T02:10:56.557Z,92.90
2018-04-11T02:15:51.457Z,92.90
2018-04-11T02:20:45.836Z,92.80
2018-04-11T02:25:40.188Z,92.80
2018-04-11T02:30:35.322Z,93.10
2018-04-11T02:35:29.668Z,93.10
2018-04-11T02:40:24.033Z,93.10
2018-04-11T02:45:18.394Z,93.60
2018-04-11T02:50:12.875Z,93.30
2018-04-11T02:55:07.257Z,92.90
2018-04-11T03:00:01.826Z,93.60
2018-04-11T03:04:56.995Z,93.60
2018-04-11T03:09:51.409Z,93.50
2018-04-11T03:14:45.793Z,93.70
2018-04-11T03:19:40.168Z,94.00
2018-04-11T03:24:34.512Z,93.80
2018-04-11T03:29:29.139Z,93.90
2018-04-11T03:34:23.346Z,93.90
2018-04-11T03:39:18.740Z,94.10
2018-04-11T03:44:13.119Z,94.10
2018-04-11T03:49:08.438Z,94.00
2018-04-11T03:54:02.914Z,94.00
2018-04-11T03:58:58.019Z,95.00
2018-04-11T04:03:52.388Z,95.00
2018-04-11T04:08:46.515Z,94.70
2018-04-11T04:13:57.770Z,95.00
2018-04-11T04:19:09.191Z,95.30
2018-04-11T04:24:04.145Z,95.60
2018-04-11T04:28:59.339Z,96.00
2018-04-11T04:33:53.705Z,96.00
2018-04-11T04:38:48.098Z,95.80
2018-04-11T04:43:42.463Z,95.70
2018-04-11T04:48:36.833Z,95.60
2018-04-11T04:53:31.189Z,95.70
2018-04-11T04:58:25.619Z,95.60
2018-04-11T05:03:20.775Z,95.30
2018-04-11T05:08:15.353Z,95.30
2018-04-11T05:13:09.727Z,95.20
2018-04-11T05:18:04.276Z,95.60
2018-04-11T05:22:58.623Z,96.10
2018-04-11T05:27:53.502Z,95.70
2018-04-11T05:32:47.890Z,95.30
2018-04-11T05:37:42.433Z,95.30
2018-04-11T05:42:36.910Z,96.40
2018-04-11T05:47:31.270Z,96.10
2018-04-11T05:52:26.415Z,96.30
2018-04-11T05:57:20.810Z,96.30
2018-04-11T06:02:16.064Z,95.80
2018-04-11T06:07:10.425Z,95.80
2018-04-11T06:12:05.550Z,95.50
2018-04-11T06:17:00.710Z,95.40
2018-04-11T06:21:55.343Z,95.40
2018-04-11T06:26:49.475Z,95.20
2018-04-11T06:31:44.751Z,95.10
2018-04-11T06:36:38.953Z,95.10
2018-04-11T06:41:33.587Z,95.10
2018-04-11T06:46:27.957Z,95.10
2018-04-11T06:51:22.601Z,94.90
2018-04-11T06:56:17.745Z,94.80
2018-04-11T07:01:12.884Z,95.00
2018-04-11T07:06:07.708Z,95.00
2018-04-11T07:11:02.077Z,95.00
2018-04-11T07:15:57.265Z,95.30
2018-04-11T07:20:51.647Z,95.30
2018-04-11T07:25:46.073Z,95.20
2018-04-11T07:30:40.598Z,95.20
2018-04-11T07:35:35.733Z,94.80
2018-04-11T07:40:31.015Z,94.50
2018-04-11T07:45:25.394Z,94.40
2018-04-11T07:50:19.884Z,95.00
2018-04-11T07:55:14.249Z,94.40
2018-04-11T08:00:08.710Z,94.50
2018-04-11T08:05:02.851Z,94.70
2018-04-11T08:09:57.822Z,94.80
2018-04-11T08:14:52.309Z,94.80
2018-04-11T08:19:46.444Z,94.90
2018-04-11T08:24:41.207Z,94.70
2018-04-11T08:29:35.537Z,94.50
2018-04-11T08:34:29.911Z,94.50
2018-04-11T08:39:24.263Z,94.50
2018-04-11T08:44:18.643Z,94.40
2018-04-11T08:49:12.999Z,94.60
2018-04-11T08:54:08.205Z,94.70
2018-04-11T08:59:04.315Z,94.50
2018-04-11T09:03:59.022Z,94.50
2018-04-11T09:08:53.385Z,94.30
2018-04-11T09:13:48.491Z,93.80
2018-04-11T09:18:43.613Z,93.70
2018-04-11T09:23:38.741Z,94.00
2018-04-11T09:28:33.876Z,93.60
2018-04-11T09:33:28.456Z,93.60
2018-04-11T09:38:22.859Z,93.40
2018-04-11T09:43:17.242Z,93.30
2018-04-11T09:48:11.628Z,93.10
2018-04-11T09:53:06.139Z,92.70
2018-04-11T09:58:01.686Z,92.30
2018-04-11T10:03:01.429Z,92.30
2018-04-11T10:07:56.780Z,92.20
2018-04-11T10:12:51.218Z,92.20
2018-04-11T10:17:45.565Z,92.20
2018-04-11T10:22:41.355Z,92.30
2018-04-11T10:27:36.023Z,92.30
2018-04-11T10:32:31.187Z,92.20
2018-04-11T10:37:25.872Z,92.20
2018-04-11T10:42:20.239Z,92.00
2018-04-11T10:47:14.801Z,92.10
2018-04-11T10:52:09.169Z,92.20
2018-04-11T10:57:04.317Z,92.00
2018-04-11T11:01:58.545Z,92.10
2018-04-11T11:06:52.945Z,92.00
2018-04-11T11:11:47.307Z,91.70
2018-04-11T11:16:41.780Z,91.70
2018-04-11T11:21:36.157Z,91.80
2018-04-11T11:26:30.300Z,91.80
2018-04-11T11:31:25.433Z,91.80
2018-04-11T11:36:19.980Z,91.80
2018-04-11T11:41:14.266Z,91.90
2018-04-11T11:46:08.780Z,91.90
2018-04-11T11:51:03.340Z,92.10
2018-04-11T11:55:58.623Z,91.50
2018-04-11T12:00:53.101Z,91.50
2018-04-11T12:05:47.477Z,91.10
2018-04-11T12:10:41.839Z,90.80
2018-04-11T12:15:36.727Z,90.70
2018-04-11T12:20:31.094Z,90.40
2018-04-11T12:25:25.997Z,89.70
2018-04-11T12:30:21.265Z,89.70
2018-04-11T12:35:15.994Z,89.70
2018-04-11T12:40:10.463Z,89.30
2018-04-11T12:45:05.646Z,89.00
2018-04-11T12:50:00.019Z,89.00
2018-04-11T12:54:54.477Z,89.50
2018-04-11T12:59:49.599Z,90.00
2018-04-11T13:04:44.795Z,89.90
2018-04-11T13:09:40.667Z,90.00
2018-04-11T13:14:34.793Z,90.00
2018-04-11T13:19:29.229Z,90.00
2018-04-11T13:24:23.875Z,90.20
2018-04-11T13:29:19.196Z,90.50
2018-04-11T13:34:13.556Z,90.40
2018-04-11T13:39:07.722Z,90.50
2018-04-11T13:44:01.832Z,90.60
2018-04-11T13:48:55.986Z,90.90
2018-04-11T13:53:50.877Z,90.20
2018-04-11T13:58:46.020Z,90.10
2018-04-11T14:03:40.382Z,90.00
2018-04-11T14:08:34.754Z,90.00
2018-04-11T14:13:28.892Z,90.30
2018-04-11T14:18:25.294Z,88.90
2018-04-11T14:23:19.674Z,88.90
2018-04-11T14:28:14.599Z,87.50
2018-04-11T14:33:09.126Z,87.50
2018-04-11T14:38:03.259Z,87.40
2018-04-11T14:42:57.639Z,86.20
2018-04-11T14:47:51.910Z,86.30
2018-04-11T14:52:46.112Z,86.00
2018-04-11T14:57:40.534Z,85.00
2018-04-11T15:02:35.161Z,85.10
2018-04-11T15:07:29.540Z,84.50
2018-04-11T15:12:24.235Z,83.50
2018-04-11T15:17:21.008Z,82.00
2018-04-11T15:22:15.393Z,82.50
2018-04-11T15:27:09.773Z,80.80
2018-04-11T15:32:05.042Z,84.00
2018-04-11T15:36:59.641Z,83.90
2018-04-11T15:41:54.112Z,85.40
2018-04-11T15:46:49.275Z,87.30
2018-04-11T15:51:45.890Z,87.20
2018-04-11T15:56:41.008Z,87.00
2018-04-11T16:01:36.785Z,85.30
2018-04-11T16:06:31.100Z,85.30
2018-04-11T16:11:26.018Z,84.30
2018-04-11T16:16:20.925Z,84.10
2018-04-11T16:21:15.322Z,84.20
2018-04-11T16:26:09.892Z,84.70
2018-04-11T16:31:05.159Z,85.20
2018-04-11T16:35:59.644Z,85.20
2018-04-11T16:40:54.017Z,85.60
2018-04-11T16:45:49.541Z,87.10
2018-04-11T16:50:44.653Z,87.60
2018-04-11T16:55:39.053Z,87.60
2018-04-11T17:00:33.495Z,88.10
2018-04-11T17:05:27.871Z,88.20
2018-04-11T17:10:22.975Z,88.90
2018-04-11T17:15:17.907Z,88.50
2018-04-11T17:20:13.051Z,87.80
2018-04-11T17:25:24.193Z,87.80
2018-04-11T17:30:35.669Z,88.20
2018-04-11T17:35:30.027Z,88.90
2018-04-11T17:40:25.194Z,90.20
2018-04-11T17:45:19.333Z,90.20
2018-04-11T17:50:13.473Z,90.70
2018-04-11T17:55:08.244Z,91.10
2018-04-11T18:00:02.657Z,91.90
2018-04-11T18:04:58.075Z,92.60
2018-04-11T18:09:53.246Z,92.80
2018-04-11T18:14:47.869Z,92.80
2018-04-11T18:19:42.289Z,93.10
2018-04-11T18:24:36.637Z,93.50
2018-04-11T18:29:31.069Z,94.00
2018-04-11T18:34:25.633Z,94.20
2018-04-11T18:39:20.329Z,94.10
2018-04-11T18:44:14.790Z,94.30
2018-04-11T18:49:09.436Z,94.40
2018-04-11T18:54:03.984Z,94.90
2018-04-11T18:58:58.550Z,94.90
2018-04-11T19:03:52.719Z,94.90
2018-04-11T19:08:47.197Z,95.50
2018-04-11T19:13:41.738Z,95.50
2018-04-11T19:18:35.971Z,95.40
2018-04-11T19:23:31.102Z,95.50
2018-04-11T19:28:26.580Z,95.50
2018-04-11T19:33:21.798Z,95.40
2018-04-11T19:38:16.381Z,96.00
2018-04-11T19:43:10.747Z,95.80
2018-04-11T19:48:05.087Z,95.90
2018-04-11T19:52:59.480Z,96.20
2018-04-11T19:57:54.824Z,97.00
2018-04-11T20:02:51.327Z,96.70
2018-04-11T20:07:49.375Z,97.20
2018-04-11T20:12:44.215Z,97.10
2018-04-11T20:17:38.561Z,97.30
2018-04-11T20:22:34.122Z,97.40
2018-04-11T20:27:29.860Z,97.40
2018-04-11T20:32:24.717Z,97.60
2018-04-11T20:37:20.280Z,98.60
2018-04-11T20:42:15.811Z,98.60
2018-04-11T20:47:11.725Z,98.40
2018-04-11T20:52:06.925Z,98.90
2018-04-11T20:57:03.042Z,98.90
2018-04-11T21:01:57.700Z,99.50
2018-04-11T21:06:53.393Z,99.50
2018-04-11T21:11:47.865Z,99.70
2018-04-11T21:16:43.907Z,99.80
2018-04-11T21:21:41.713Z,99.90
2018-04-11T21:26:36.084Z,99.90
2018-04-11T21:31:31.221Z,99.90
2018-04-11T21:36:25.608Z,99.90
2018-04-11T21:41:20.021Z,99.90
2018-04-11T21:46:15.217Z,99.90
2018-04-11T21:51:09.747Z,99.90
2018-04-11T21:56:03.895Z,99.90
2018-04-11T22:00:58.869Z,99.90
2018-04-11T22:05:53.298Z,99.90
2018-04-11T22:10:48.673Z,99.90
2018-04-11T22:15:43.465Z,99.90
2018-04-11T22:20:37.870Z,99.90
2018-04-11T22:25:32.705Z,99.90
2018-04-11T22:30:27.271Z,99.90
2018-04-11T22:35:22.528Z,99.90
2018-04-11T22:40:16.904Z,99.90
2018-04-11T22:45:11.417Z,99.90
2018-04-11T22:50:05.654Z,99.90
2018-04-11T22:55:00.101Z,99.90
2018-04-11T22:59:55.252Z,99.90
2018-04-11T23:04:49.634Z,99.90
2018-04-11T23:09:43.759Z,99.90
2018-04-11T23:14:38.147Z,99.90
2018-04-11T23:19:32.671Z,99.90
2018-04-11T23:24:27.036Z,99.90
2018-04-11T23:29:21.427Z,99.90
2018-04-11T23:34:16.738Z,99.90
2018-04-11T23:39:11.891Z,99.90
2018-04-11T23:44:06.999Z,99.90
2018-04-11T23:49:01.703Z,99.90
2018-04-11T23:53:56.385Z,99.90
2018-04-11T23:58:50.795Z,99.90
